sensor_id;sensor_type;location;lat;lon;timestamp;P1;durP1;ratioP1;P2;durP2;ratioP2
39680;SDS011;26327;42.550;23.120;2023-06-10T13:54:47;15.52;;;5.45;;
39680;SDS011;26327;42.550;23.120;2023-06-10T13:57:12;15.60;;;5.80;;
39680;SDS011;26327;42.550;23.120;2023-06-10T13:59:38;12.07;;;5.03;;
39680;SDS011;26327;42.550;23.120;2023-06-10T14:02:03;8.50;;;4.85;;
39680;SDS011;26327;42.550;23.120;2023-06-10T14:04:29;8.18;;;4.45;;
39680;SDS011;26327;42.550;23.120;2023-06-10T14:06:55;11.30;;;4.60;;
39680;SDS011;26327;42.550;23.120;2023-06-10T14:09:22;9.35;;;4.53;;
39680;SDS011;26327;42.550;23.120;2023-06-10T14:11:47;8.48;;;4.40;;
39680;SDS011;26327;42.550;23.120;2023-06-10T14:14:13;11.63;;;4.75;;
39680;SDS011;26327;42.550;23.120;2023-06-10T14:16:39;8.80;;;4.80;;
39680;SDS011;26327;42.550;23.120;2023-06-10T14:19:04;6.97;;;4.63;;
39680;SDS011;26327;42.550;23.120;2023-06-10T14:21:30;9.00;;;5.05;;
39680;SDS011;26327;42.550;23.120;2023-06-10T14:23:55;7.80;;;4.72;;
39680;SDS011;26327;42.550;23.120;2023-06-10T14:26:21;7.47;;;4.85;;
39680;SDS011;26327;42.550;23.120;2023-06-10T14:28:47;12.60;;;5.13;;
39680;SDS011;26327;42.550;23.120;2023-06-10T14:31:13;8.73;;;4.30;;
39680;SDS011;26327;42.550;23.120;2023-06-10T14:33:38;9.27;;;4.28;;
39680;SDS011;26327;42.550;23.120;2023-06-10T14:36:04;9.88;;;5.32;;
39680;SDS011;26327;42.550;23.120;2023-06-10T14:38:30;10.52;;;4.93;;
39680;SDS011;26327;42.550;23.120;2023-06-10T14:40:55;8.52;;;5.05;;
39680;SDS011;26327;42.550;23.120;2023-06-10T14:43:20;13.07;;;5.88;;
39680;SDS011;26327;42.550;23.120;2023-06-10T14:45:46;12.07;;;5.55;;
39680;SDS011;26327;42.550;23.120;2023-06-10T14:48:11;9.77;;;5.28;;
39680;SDS011;26327;42.550;23.120;2023-06-10T14:50:38;11.65;;;5.28;;
39680;SDS011;26327;42.550;23.120;2023-06-10T14:53:05;9.70;;;5.65;;
39680;SDS011;26327;42.550;23.120;2023-06-10T14:55:30;8.70;;;5.43;;
39680;SDS011;26327;42.550;23.120;2023-06-10T14:57:56;11.70;;;6.18;;
39680;SDS011;26327;42.550;23.120;2023-06-10T15:00:22;9.60;;;5.53;;
39680;SDS011;26327;42.550;23.120;2023-06-10T15:02:49;8.73;;;5.47;;
39680;SDS011;26327;42.550;23.120;2023-06-10T15:05:15;14.18;;;7.13;;
39680;SDS011;26327;42.550;23.120;2023-06-10T15:07:42;8.95;;;5.22;;
39680;SDS011;26327;42.550;23.120;2023-06-10T15:10:08;7.55;;;5.03;;
39680;SDS011;26327;42.550;23.120;2023-06-10T15:12:34;11.10;;;5.95;;
39680;SDS011;26327;42.550;23.120;2023-06-10T15:14:59;10.60;;;5.28;;
39680;SDS011;26327;42.550;23.120;2023-06-10T15:17:25;10.82;;;6.20;;
39680;SDS011;26327;42.550;23.120;2023-06-10T15:19:51;9.25;;;5.80;;
39680;SDS011;26327;42.550;23.120;2023-06-10T15:22:16;11.18;;;6.00;;
39680;SDS011;26327;42.550;23.120;2023-06-10T15:24:42;8.98;;;5.80;;
39680;SDS011;26327;42.550;23.120;2023-06-10T15:27:07;9.32;;;5.10;;
39680;SDS011;26327;42.550;23.120;2023-06-10T15:29:33;11.27;;;6.00;;
39680;SDS011;26327;42.550;23.120;2023-06-10T15:31:58;9.40;;;6.00;;
39680;SDS011;26327;42.550;23.120;2023-06-10T15:34:24;9.25;;;5.97;;
39680;SDS011;26327;42.550;23.120;2023-06-10T15:36:49;11.63;;;5.50;;
39680;SDS011;26327;42.550;23.120;2023-06-10T15:39:15;9.13;;;5.80;;
39680;SDS011;26327;42.550;23.120;2023-06-10T15:41:40;8.93;;;5.15;;
39680;SDS011;26327;42.550;23.120;2023-06-10T15:44:06;9.10;;;4.90;;
39680;SDS011;26327;42.550;23.120;2023-06-10T15:46:31;8.18;;;5.50;;
39680;SDS011;26327;42.550;23.120;2023-06-10T15:48:57;9.10;;;5.80;;
39680;SDS011;26327;42.550;23.120;2023-06-10T15:51:22;7.80;;;5.53;;
39680;SDS011;26327;42.550;23.120;2023-06-10T15:53:48;9.68;;;5.22;;
39680;SDS011;26327;42.550;23.120;2023-06-10T15:56:14;7.80;;;4.63;;
39680;SDS011;26327;42.550;23.120;2023-06-10T15:58:40;8.75;;;5.10;;
39680;SDS011;26327;42.550;23.120;2023-06-10T16:01:05;9.10;;;5.18;;
39680;SDS011;26327;42.550;23.120;2023-06-10T16:03:32;8.27;;;5.15;;
39680;SDS011;26327;42.550;23.120;2023-06-10T16:05:57;10.75;;;5.07;;
39680;SDS011;26327;42.550;23.120;2023-06-10T16:08:22;6.63;;;4.70;;
39680;SDS011;26327;42.550;23.120;2023-06-10T16:10:48;7.10;;;4.50;;
39680;SDS011;26327;42.550;23.120;2023-06-10T16:13:13;8.05;;;5.00;;
39680;SDS011;26327;42.550;23.120;2023-06-10T16:15:39;8.43;;;4.32;;
39680;SDS011;26327;42.550;23.120;2023-06-10T16:18:04;5.88;;;4.25;;
39680;SDS011;26327;42.550;23.120;2023-06-10T16:20:30;6.72;;;4.63;;
39680;SDS011;26327;42.550;23.120;2023-06-10T16:22:55;5.50;;;4.20;;
39680;SDS011;26327;42.550;23.120;2023-06-10T16:25:20;9.30;;;5.40;;
39680;SDS011;26327;42.550;23.120;2023-06-10T16:27:46;7.28;;;5.53;;
39680;SDS011;26327;42.550;23.120;2023-06-10T16:30:11;9.25;;;6.60;;
39680;SDS011;26327;42.550;23.120;2023-06-10T16:32:39;8.88;;;5.75;;
39680;SDS011;26327;42.550;23.120;2023-06-10T16:35:05;10.23;;;6.00;;
39680;SDS011;26327;42.550;23.120;2023-06-10T16:37:31;10.98;;;6.82;;
39680;SDS011;26327;42.550;23.120;2023-06-10T16:39:57;8.88;;;6.50;;
39680;SDS011;26327;42.550;23.120;2023-06-10T16:42:22;15.85;;;7.28;;
39680;SDS011;26327;42.550;23.120;2023-06-10T16:44:48;11.30;;;6.68;;
39680;SDS011;26327;42.550;23.120;2023-06-10T16:47:13;7.50;;;5.93;;
39680;SDS011;26327;42.550;23.120;2023-06-10T16:49:38;11.02;;;7.05;;
39680;SDS011;26327;42.550;23.120;2023-06-10T16:52:05;9.20;;;6.50;;
39680;SDS011;26327;42.550;23.120;2023-06-10T16:54:30;8.90;;;6.40;;
39680;SDS011;26327;42.550;23.120;2023-06-10T16:56:56;7.95;;;5.75;;
39680;SDS011;26327;42.550;23.120;2023-06-10T16:59:21;8.88;;;5.95;;
39680;SDS011;26327;42.550;23.120;2023-06-10T17:01:47;8.43;;;5.72;;
39680;SDS011;26327;42.550;23.120;2023-06-10T17:04:12;8.95;;;6.65;;
39680;SDS011;26327;42.550;23.120;2023-06-10T17:06:38;11.25;;;6.80;;
39680;SDS011;26327;42.550;23.120;2023-06-10T17:09:04;9.02;;;5.50;;
39680;SDS011;26327;42.550;23.120;2023-06-10T17:11:29;8.40;;;6.05;;
39680;SDS011;26327;42.550;23.120;2023-06-10T17:13:56;9.40;;;6.57;;
39680;SDS011;26327;42.550;23.120;2023-06-10T17:16:22;9.65;;;6.78;;
39680;SDS011;26327;42.550;23.120;2023-06-10T17:18:47;13.23;;;7.20;;
39680;SDS011;26327;42.550;23.120;2023-06-10T17:21:12;9.25;;;7.35;;
39680;SDS011;26327;42.550;23.120;2023-06-10T17:23:38;11.05;;;7.45;;
39680;SDS011;26327;42.550;23.120;2023-06-10T17:26:03;11.80;;;7.30;;
39680;SDS011;26327;42.550;23.120;2023-06-10T17:28:29;14.73;;;6.88;;
39680;SDS011;26327;42.550;23.120;2023-06-10T17:30:55;9.82;;;6.68;;
39680;SDS011;26327;42.550;23.120;2023-06-10T17:33:20;10.15;;;6.47;;
39680;SDS011;26327;42.550;23.120;2023-06-10T17:35:46;12.40;;;7.60;;
39680;SDS011;26327;42.550;23.120;2023-06-10T17:38:12;12.40;;;7.75;;
39680;SDS011;26327;42.550;23.120;2023-06-10T17:40:38;14.20;;;8.02;;
39680;SDS011;26327;42.550;23.120;2023-06-10T17:43:04;12.88;;;8.23;;
39680;SDS011;26327;42.550;23.120;2023-06-10T17:45:29;15.18;;;8.15;;
39680;SDS011;26327;42.550;23.120;2023-06-10T17:47:55;16.70;;;7.57;;
39680;SDS011;26327;42.550;23.120;2023-06-10T17:50:20;12.80;;;7.65;;
39680;SDS011;26327;42.550;23.120;2023-06-10T17:52:46;12.23;;;7.03;;
39680;SDS011;26327;42.550;23.120;2023-06-10T17:55:11;12.13;;;7.65;;
39680;SDS011;26327;42.550;23.120;2023-06-10T17:57:36;11.55;;;7.85;;
39680;SDS011;26327;42.550;23.120;2023-06-10T18:00:02;13.43;;;8.18;;
39680;SDS011;26327;42.550;23.120;2023-06-10T18:02:27;12.30;;;8.02;;
39680;SDS011;26327;42.550;23.120;2023-06-10T18:04:53;12.57;;;7.93;;
39680;SDS011;26327;42.550;23.120;2023-06-10T18:07:18;13.77;;;7.13;;
39680;SDS011;26327;42.550;23.120;2023-06-10T18:09:44;12.93;;;7.40;;
39680;SDS011;26327;42.550;23.120;2023-06-10T18:12:09;15.30;;;8.23;;
39680;SDS011;26327;42.550;23.120;2023-06-10T18:14:35;13.80;;;8.15;;
39680;SDS011;26327;42.550;23.120;2023-06-10T18:17:01;12.60;;;7.78;;
39680;SDS011;26327;42.550;23.120;2023-06-10T18:19:26;11.73;;;7.05;;
39680;SDS011;26327;42.550;23.120;2023-06-10T18:21:51;10.90;;;7.40;;
39680;SDS011;26327;42.550;23.120;2023-06-10T18:24:18;10.80;;;6.93;;
39680;SDS011;26327;42.550;23.120;2023-06-10T18:26:45;12.85;;;6.85;;
39680;SDS011;26327;42.550;23.120;2023-06-10T18:29:11;10.18;;;6.38;;
39680;SDS011;26327;42.550;23.120;2023-06-10T18:31:36;12.02;;;6.97;;
39680;SDS011;26327;42.550;23.120;2023-06-10T18:34:02;12.55;;;6.90;;
39680;SDS011;26327;42.550;23.120;2023-06-10T18:36:28;9.32;;;5.85;;
39680;SDS011;26327;42.550;23.120;2023-06-10T18:38:54;10.45;;;6.50;;
39680;SDS011;26327;42.550;23.120;2023-06-10T18:41:21;12.85;;;7.88;;
39680;SDS011;26327;42.550;23.120;2023-06-10T18:43:49;10.23;;;7.43;;
39680;SDS011;26327;42.550;23.120;2023-06-10T18:46:14;11.85;;;7.00;;
39680;SDS011;26327;42.550;23.120;2023-06-10T18:48:40;12.35;;;6.55;;
39680;SDS011;26327;42.550;23.120;2023-06-10T18:51:08;8.63;;;6.03;;
39680;SDS011;26327;42.550;23.120;2023-06-10T18:53:34;11.60;;;6.80;;
39680;SDS011;26327;42.550;23.120;2023-06-10T18:55:59;12.18;;;6.80;;
39680;SDS011;26327;42.550;23.120;2023-06-10T18:58:31;10.27;;;6.60;;
39680;SDS011;26327;42.550;23.120;2023-06-10T19:01:01;8.50;;;5.53;;
39680;SDS011;26327;42.550;23.120;2023-06-10T19:03:28;9.95;;;5.95;;
39680;SDS011;26327;42.550;23.120;2023-06-10T19:05:54;10.35;;;5.63;;
39680;SDS011;26327;42.550;23.120;2023-06-10T19:08:20;7.55;;;5.57;;
39680;SDS011;26327;42.550;23.120;2023-06-10T19:10:45;8.93;;;5.95;;
39680;SDS011;26327;42.550;23.120;2023-06-10T19:13:11;10.00;;;6.00;;
39680;SDS011;26327;42.550;23.120;2023-06-10T19:15:38;10.55;;;5.80;;
39680;SDS011;26327;42.550;23.120;2023-06-10T19:18:03;8.93;;;6.55;;
39680;SDS011;26327;42.550;23.120;2023-06-10T19:20:28;10.52;;;6.28;;
39680;SDS011;26327;42.550;23.120;2023-06-10T19:22:54;8.02;;;5.55;;
39680;SDS011;26327;42.550;23.120;2023-06-10T19:25:20;9.32;;;5.75;;
39680;SDS011;26327;42.550;23.120;2023-06-10T19:27:46;16.13;;;5.95;;
39680;SDS011;26327;42.550;23.120;2023-06-10T19:30:11;13.38;;;6.00;;
39680;SDS011;26327;42.550;23.120;2023-06-10T19:32:37;8.73;;;6.05;;
39680;SDS011;26327;42.550;23.120;2023-06-10T19:35:03;10.27;;;6.32;;
39680;SDS011;26327;42.550;23.120;2023-06-10T19:37:29;11.23;;;6.88;;
39680;SDS011;26327;42.550;23.120;2023-06-10T19:39:55;11.95;;;6.40;;
39680;SDS011;26327;42.550;23.120;2023-06-10T19:42:21;11.57;;;6.75;;
39680;SDS011;26327;42.550;23.120;2023-06-10T19:44:47;9.80;;;6.03;;
39680;SDS011;26327;42.550;23.120;2023-06-10T19:47:14;8.60;;;6.43;;
39680;SDS011;26327;42.550;23.120;2023-06-10T19:49:41;8.85;;;6.20;;
39680;SDS011;26327;42.550;23.120;2023-06-10T19:52:07;11.30;;;6.45;;
39680;SDS011;26327;42.550;23.120;2023-06-10T19:54:33;11.57;;;6.60;;
39680;SDS011;26327;42.550;23.120;2023-06-10T19:56:59;8.80;;;6.88;;
39680;SDS011;26327;42.550;23.120;2023-06-10T19:59:26;9.50;;;6.65;;
39680;SDS011;26327;42.550;23.120;2023-06-10T20:01:51;9.02;;;7.00;;
39680;SDS011;26327;42.550;23.120;2023-06-10T20:04:16;10.65;;;6.38;;
39680;SDS011;26327;42.550;23.120;2023-06-10T20:06:42;12.13;;;6.35;;
39680;SDS011;26327;42.550;23.120;2023-06-10T20:09:07;12.43;;;7.80;;
39680;SDS011;26327;42.550;23.120;2023-06-10T20:11:32;12.60;;;6.57;;
39680;SDS011;26327;42.550;23.120;2023-06-10T20:13:58;10.05;;;6.78;;
39680;SDS011;26327;42.550;23.120;2023-06-10T20:16:24;8.68;;;6.18;;
39680;SDS011;26327;42.550;23.120;2023-06-10T20:18:50;12.43;;;6.80;;
39680;SDS011;26327;42.550;23.120;2023-06-10T20:21:17;10.50;;;6.47;;
39680;SDS011;26327;42.550;23.120;2023-06-10T20:23:44;9.13;;;6.57;;
39680;SDS011;26327;42.550;23.120;2023-06-10T20:26:10;12.05;;;7.10;;
39680;SDS011;26327;42.550;23.120;2023-06-10T20:28:36;12.40;;;6.60;;
39680;SDS011;26327;42.550;23.120;2023-06-10T20:31:01;8.73;;;6.53;;
39680;SDS011;26327;42.550;23.120;2023-06-10T20:33:26;9.93;;;6.10;;
39680;SDS011;26327;42.550;23.120;2023-06-10T20:35:52;14.27;;;6.57;;
39680;SDS011;26327;42.550;23.120;2023-06-10T20:38:17;11.07;;;6.30;;
39680;SDS011;26327;42.550;23.120;2023-06-10T20:40:43;11.10;;;6.10;;
39680;SDS011;26327;42.550;23.120;2023-06-10T20:43:08;8.48;;;6.20;;
39680;SDS011;26327;42.550;23.120;2023-06-10T20:45:33;8.32;;;5.80;;
39680;SDS011;26327;42.550;23.120;2023-06-10T20:47:59;10.20;;;6.88;;
39680;SDS011;26327;42.550;23.120;2023-06-10T20:50:24;10.90;;;6.88;;
39680;SDS011;26327;42.550;23.120;2023-06-10T20:52:50;8.77;;;7.03;;
39680;SDS011;26327;42.550;23.120;2023-06-10T20:55:16;11.25;;;7.40;;
39680;SDS011;26327;42.550;23.120;2023-06-10T20:57:41;15.52;;;7.07;;
39680;SDS011;26327;42.550;23.120;2023-06-10T21:00:07;19.83;;;7.68;;
39680;SDS011;26327;42.550;23.120;2023-06-10T21:02:33;9.48;;;6.30;;
39680;SDS011;26327;42.550;23.120;2023-06-10T21:04:59;10.02;;;6.60;;
39680;SDS011;26327;42.550;23.120;2023-06-10T21:07:24;14.50;;;7.63;;
39680;SDS011;26327;42.550;23.120;2023-06-10T21:09:50;11.82;;;6.15;;
39680;SDS011;26327;42.550;23.120;2023-06-10T21:12:16;10.70;;;6.18;;
39680;SDS011;26327;42.550;23.120;2023-06-10T21:14:41;11.63;;;6.35;;
39680;SDS011;26327;42.550;23.120;2023-06-10T21:17:07;9.32;;;5.70;;
39680;SDS011;26327;42.550;23.120;2023-06-10T21:19:33;8.73;;;5.60;;
39680;SDS011;26327;42.550;23.120;2023-06-10T21:21:58;11.07;;;5.75;;
39680;SDS011;26327;42.550;23.120;2023-06-10T21:24:24;12.15;;;6.05;;
39680;SDS011;26327;42.550;23.120;2023-06-10T21:26:49;9.10;;;6.30;;
39680;SDS011;26327;42.550;23.120;2023-06-10T21:29:15;8.50;;;6.07;;
39680;SDS011;26327;42.550;23.120;2023-06-10T21:31:40;9.45;;;6.47;;
39680;SDS011;26327;42.550;23.120;2023-06-10T21:34:06;10.90;;;6.82;;
39680;SDS011;26327;42.550;23.120;2023-06-10T21:36:31;13.00;;;6.72;;
39680;SDS011;26327;42.550;23.120;2023-06-10T21:38:56;13.20;;;6.85;;
39680;SDS011;26327;42.550;23.120;2023-06-10T21:41:22;10.98;;;6.95;;
39680;SDS011;26327;42.550;23.120;2023-06-10T21:43:47;11.18;;;6.25;;
39680;SDS011;26327;42.550;23.120;2023-06-10T21:46:13;9.95;;;5.95;;
39680;SDS011;26327;42.550;23.120;2023-06-10T21:48:38;14.55;;;6.32;;
39680;SDS011;26327;42.550;23.120;2023-06-10T21:51:04;14.30;;;6.72;;
39680;SDS011;26327;42.550;23.120;2023-06-10T21:53:29;10.50;;;6.05;;
39680;SDS011;26327;42.550;23.120;2023-06-10T21:55:55;9.68;;;6.30;;
39680;SDS011;26327;42.550;23.120;2023-06-10T21:58:20;12.68;;;6.32;;
39680;SDS011;26327;42.550;23.120;2023-06-10T22:00:46;13.40;;;6.57;;
39680;SDS011;26327;42.550;23.120;2023-06-10T22:03:12;8.25;;;6.40;;
39680;SDS011;26327;42.550;23.120;2023-06-10T22:05:37;9.75;;;6.57;;
39680;SDS011;26327;42.550;23.120;2023-06-10T22:08:02;10.77;;;5.90;;
39680;SDS011;26327;42.550;23.120;2023-06-10T22:10:28;9.43;;;6.55;;
39680;SDS011;26327;42.550;23.120;2023-06-10T22:12:54;11.27;;;6.18;;
39680;SDS011;26327;42.550;23.120;2023-06-10T22:15:19;12.00;;;6.60;;
39680;SDS011;26327;42.550;23.120;2023-06-10T22:17:45;7.53;;;5.63;;
39680;SDS011;26327;42.550;23.120;2023-06-10T22:20:11;15.27;;;5.85;;
39680;SDS011;26327;42.550;23.120;2023-06-10T22:22:37;10.88;;;6.55;;
39680;SDS011;26327;42.550;23.120;2023-06-10T22:25:04;11.45;;;6.47;;
39680;SDS011;26327;42.550;23.120;2023-06-10T22:27:30;11.55;;;6.05;;
39680;SDS011;26327;42.550;23.120;2023-06-10T22:29:55;11.82;;;5.93;;
39680;SDS011;26327;42.550;23.120;2023-06-10T22:32:21;8.38;;;6.05;;
39680;SDS011;26327;42.550;23.120;2023-06-10T22:34:46;9.32;;;6.10;;
39680;SDS011;26327;42.550;23.120;2023-06-10T22:37:12;8.02;;;5.82;;
39680;SDS011;26327;42.550;23.120;2023-06-10T22:39:37;10.13;;;6.40;;
39680;SDS011;26327;42.550;23.120;2023-06-10T22:42:03;10.35;;;6.55;;
39680;SDS011;26327;42.550;23.120;2023-06-10T22:44:33;7.72;;;5.40;;
39680;SDS011;26327;42.550;23.120;2023-06-10T22:46:58;7.22;;;5.43;;
39680;SDS011;26327;42.550;23.120;2023-06-10T22:49:24;12.88;;;5.93;;
39680;SDS011;26327;42.550;23.120;2023-06-10T22:51:50;7.00;;;5.75;;
39680;SDS011;26327;42.550;23.120;2023-06-10T22:54:15;9.23;;;5.63;;
39680;SDS011;26327;42.550;23.120;2023-06-10T22:56:40;7.25;;;5.72;;
39680;SDS011;26327;42.550;23.120;2023-06-10T22:59:06;9.07;;;6.20;;
39680;SDS011;26327;42.550;23.120;2023-06-10T23:01:31;9.23;;;6.40;;
39680;SDS011;26327;42.550;23.120;2023-06-10T23:03:57;9.07;;;6.10;;
39680;SDS011;26327;42.550;23.120;2023-06-10T23:06:23;12.40;;;6.45;;
39680;SDS011;26327;42.550;23.120;2023-06-10T23:08:48;10.90;;;6.35;;
39680;SDS011;26327;42.550;23.120;2023-06-10T23:11:14;8.55;;;6.00;;
39680;SDS011;26327;42.550;23.120;2023-06-10T23:13:40;12.98;;;6.32;;
39680;SDS011;26327;42.550;23.120;2023-06-10T23:16:06;12.82;;;7.32;;
39680;SDS011;26327;42.550;23.120;2023-06-10T23:18:31;11.50;;;6.18;;
39680;SDS011;26327;42.550;23.120;2023-06-10T23:20:57;10.57;;;6.50;;
39680;SDS011;26327;42.550;23.120;2023-06-10T23:23:24;12.50;;;7.35;;
39680;SDS011;26327;42.550;23.120;2023-06-10T23:26:01;11.00;;;6.10;;
39680;SDS011;26327;42.550;23.120;2023-06-10T23:28:26;9.63;;;7.10;;
39680;SDS011;26327;42.550;23.120;2023-06-10T23:30:52;11.23;;;6.82;;
39680;SDS011;26327;42.550;23.120;2023-06-10T23:33:19;10.73;;;6.00;;
39680;SDS011;26327;42.550;23.120;2023-06-10T23:35:45;13.65;;;5.97;;
39680;SDS011;26327;42.550;23.120;2023-06-10T23:38:10;11.82;;;6.03;;
39680;SDS011;26327;42.550;23.120;2023-06-10T23:40:35;10.77;;;5.97;;
39680;SDS011;26327;42.550;23.120;2023-06-10T23:43:01;9.20;;;6.20;;
39680;SDS011;26327;42.550;23.120;2023-06-10T23:45:26;8.40;;;6.28;;
39680;SDS011;26327;42.550;23.120;2023-06-10T23:47:52;9.27;;;6.20;;
39680;SDS011;26327;42.550;23.120;2023-06-10T23:50:17;10.60;;;6.68;;
39680;SDS011;26327;42.550;23.120;2023-06-10T23:52:43;11.80;;;6.60;;
39680;SDS011;26327;42.550;23.120;2023-06-10T23:55:08;11.43;;;6.50;;
39680;SDS011;26327;42.550;23.120;2023-06-10T23:57:34;10.65;;;6.78;;
